createdAt,value
2022-12-20T00:01:55.608Z,1.95
2022-12-20T00:05:57.350Z,1.52
2022-12-20T00:09:59.011Z,1.80
2022-12-20T00:14:00.779Z,1.77
2022-12-20T00:18:03.170Z,1.60
2022-12-20T00:22:04.915Z,1.87
2022-12-20T00:26:15.361Z,1.35
2022-12-20T00:30:17.880Z,1.55
2022-12-20T00:34:19.531Z,1.70
2022-12-20T00:38:21.161Z,2.05
2022-12-20T00:42:23.063Z,1.80
2022-12-20T00:46:25.384Z,1.95
2022-12-20T00:50:27.054Z,1.60
2022-12-20T00:54:28.701Z,1.70
2022-12-20T00:58:31.699Z,1.90
2022-12-20T01:02:33.583Z,1.60
2022-12-20T01:06:36.305Z,1.70
2022-12-20T01:10:37.951Z,1.92
2022-12-20T01:14:39.715Z,1.65
2022-12-20T01:18:41.542Z,1.58
2022-12-20T01:22:47.485Z,1.80
2022-12-20T01:26:49.519Z,1.55
2022-12-20T01:30:51.220Z,1.50
2022-12-20T01:34:54.354Z,1.60
2022-12-20T01:39:08.460Z,1.73
2022-12-20T01:43:14.721Z,1.35
2022-12-20T01:47:16.441Z,1.58
2022-12-20T01:51:18.981Z,1.50
2022-12-20T01:55:25.013Z,1.90
2022-12-20T01:59:28.401Z,1.58
2022-12-20T02:03:32.203Z,1.50
2022-12-20T02:07:35.474Z,2.00
2022-12-20T02:11:56.086Z,2.05
2022-12-20T02:15:58.354Z,2.10
2022-12-20T02:20:26.355Z,1.70
2022-12-20T02:24:53.019Z,1.90
2022-12-20T02:29:00.299Z,1.70
2022-12-20T02:37:13.299Z,1.98
2022-12-20T02:41:29.936Z,2.55
2022-12-20T02:45:35.767Z,2.10
2022-12-20T02:49:41.171Z,2.12
2022-12-20T02:53:43.251Z,2.15
2022-12-20T02:57:59.885Z,2.00
2022-12-20T03:02:03.324Z,2.47
2022-12-20T03:06:05.670Z,2.10
2022-12-20T03:10:07.887Z,2.40
2022-12-20T03:14:09.548Z,2.08
2022-12-20T03:18:11.234Z,2.30
2022-12-20T03:22:12.852Z,2.90
2022-12-20T03:26:14.513Z,2.55
2022-12-20T03:30:16.325Z,2.47
2022-12-20T03:34:17.965Z,2.83
2022-12-20T03:38:19.621Z,3.25
2022-12-20T03:42:21.432Z,3.62
2022-12-20T03:46:23.247Z,3.92
2022-12-20T03:50:25.030Z,2.92
2022-12-20T03:54:27.278Z,3.20
2022-12-20T03:58:28.947Z,3.30
2022-12-20T04:02:30.727Z,3.45
2022-12-20T04:06:32.518Z,2.80
2022-12-20T04:10:54.297Z,3.35
2022-12-20T04:14:55.955Z,3.15
2022-12-20T04:18:57.785Z,3.35
2022-12-20T04:22:59.404Z,2.75
2022-12-20T04:27:01.025Z,3.22
2022-12-20T04:31:03.115Z,3.12
2022-12-20T04:35:05.356Z,3.00
2022-12-20T04:39:07.005Z,3.20
2022-12-20T04:43:08.603Z,3.30
2022-12-20T04:47:10.265Z,3.10
2022-12-20T04:51:11.970Z,3.30
2022-12-20T04:55:13.655Z,3.25
2022-12-20T04:59:15.266Z,3.20
2022-12-20T05:03:16.948Z,3.60
2022-12-20T05:07:18.669Z,3.20
2022-12-20T05:11:20.364Z,3.60
2022-12-20T05:15:22.019Z,4.00
2022-12-20T05:19:23.696Z,3.80
2022-12-20T05:23:44.060Z,3.25
2022-12-20T05:27:45.722Z,3.75
2022-12-20T05:31:47.575Z,3.42
2022-12-20T05:35:49.420Z,3.35
2022-12-20T05:39:51.126Z,3.53
2022-12-20T05:43:52.828Z,3.03
2022-12-20T05:47:54.535Z,3.28
2022-12-20T05:51:56.166Z,3.22
2022-12-20T05:56:01.263Z,3.20
2022-12-20T06:00:04.755Z,2.75
2022-12-20T06:04:06.426Z,2.70
2022-12-20T06:08:08.327Z,2.53
2022-12-20T06:12:09.982Z,2.87
2022-12-20T06:16:11.642Z,2.47
2022-12-20T06:20:13.389Z,2.30
2022-12-20T06:24:15.412Z,2.83
2022-12-20T06:28:21.615Z,2.95
2022-12-20T06:32:23.264Z,2.40
2022-12-20T06:36:25.178Z,2.67
2022-12-20T06:40:26.835Z,2.60
2022-12-20T06:44:28.467Z,2.30
2022-12-20T06:48:30.270Z,2.37
2022-12-20T06:52:32.172Z,2.87
2022-12-20T06:56:40.792Z,2.28
2022-12-20T07:00:42.818Z,2.40
2022-12-20T07:04:44.574Z,2.47
2022-12-20T07:08:46.193Z,2.40
2022-12-20T07:12:48.696Z,2.35
2022-12-20T07:16:50.604Z,2.10
2022-12-20T07:20:52.874Z,2.00
2022-12-20T07:24:54.543Z,2.42
2022-12-20T07:28:56.384Z,2.30
2022-12-20T07:32:58.618Z,2.45
2022-12-20T07:37:00.253Z,2.30
2022-12-20T07:41:10.344Z,2.30
2022-12-20T07:45:11.985Z,2.10
2022-12-20T07:49:14.108Z,2.17
2022-12-20T07:53:15.781Z,2.42
2022-12-20T07:57:31.999Z,1.98
2022-12-20T08:01:34.115Z,2.25
2022-12-20T08:05:38.776Z,2.08
2022-12-20T08:09:44.003Z,2.08
2022-12-20T08:13:48.766Z,2.05
2022-12-20T08:17:52.216Z,1.80
2022-12-20T08:21:54.348Z,1.95
2022-12-20T08:25:56.171Z,1.70
2022-12-20T08:29:57.817Z,1.92
2022-12-20T08:33:59.499Z,1.92
2022-12-20T08:38:01.202Z,1.85
2022-12-20T08:42:04.932Z,1.85
2022-12-20T08:46:08.006Z,1.80
2022-12-20T08:50:10.118Z,1.67
2022-12-20T08:54:11.773Z,1.75
2022-12-20T08:58:13.455Z,1.52
2022-12-20T09:02:15.305Z,1.73
2022-12-20T09:06:20.027Z,1.85
2022-12-20T09:10:21.652Z,1.85
2022-12-20T09:14:23.603Z,1.90
2022-12-20T09:18:25.283Z,1.87
2022-12-20T09:22:29.550Z,1.80
2022-12-20T09:26:31.181Z,2.15
2022-12-20T09:30:33.117Z,1.42
2022-12-20T09:34:34.757Z,2.53
2022-12-20T09:38:36.644Z,1.95
2022-12-20T09:42:38.275Z,2.20
2022-12-20T09:46:41.437Z,1.92
2022-12-20T09:51:09.947Z,2.25
2022-12-20T09:55:20.813Z,2.00
2022-12-20T09:59:22.495Z,2.20
2022-12-20T10:03:30.086Z,2.22
2022-12-20T10:08:02.170Z,2.00
2022-12-20T10:12:32.133Z,2.10
2022-12-20T10:16:45.353Z,2.30
2022-12-20T10:21:10.373Z,2.00
2022-12-20T10:25:25.241Z,2.05
2022-12-20T10:29:26.934Z,2.15
2022-12-20T10:33:31.223Z,2.08
2022-12-20T10:37:32.849Z,2.10
2022-12-20T10:41:40.435Z,2.22
2022-12-20T10:45:43.628Z,2.05
2022-12-20T10:49:45.281Z,1.92
2022-12-20T10:54:01.565Z,2.03
2022-12-20T10:58:31.923Z,1.80
2022-12-20T11:02:42.049Z,1.73
2022-12-20T11:06:45.662Z,1.73
2022-12-20T11:10:47.555Z,1.73
2022-12-20T11:14:49.449Z,1.60
2022-12-20T11:19:02.644Z,2.00
2022-12-20T11:23:46.702Z,1.58
2022-12-20T11:27:54.476Z,1.95
2022-12-20T11:32:24.387Z,1.48
2022-12-20T11:37:02.485Z,1.85
2022-12-20T11:41:41.795Z,1.70
2022-12-20T11:46:29.622Z,1.60
2022-12-20T11:50:40.040Z,1.80
2022-12-20T11:54:47.593Z,1.73
2022-12-20T11:59:03.894Z,1.35
2022-12-20T12:03:34.764Z,1.50
2022-12-20T12:07:39.362Z,1.73
2022-12-20T12:12:06.589Z,1.65
2022-12-20T12:16:19.900Z,1.70
2022-12-20T12:20:42.743Z,2.03
2022-12-20T12:24:49.953Z,1.65
2022-12-20T12:33:02.640Z,1.55
2022-12-20T12:37:38.254Z,1.90
2022-12-20T12:41:55.221Z,1.52
2022-12-20T12:45:59.090Z,2.00
2022-12-20T12:50:03.547Z,2.00
2022-12-20T12:54:34.627Z,2.20
2022-12-20T12:58:37.453Z,1.98
2022-12-20T13:02:51.490Z,2.20
2022-12-20T13:06:59.534Z,2.33
2022-12-20T13:11:02.004Z,2.22
2022-12-20T13:15:23.583Z,2.80
2022-12-20T13:19:25.437Z,2.10
2022-12-20T13:23:27.146Z,2.62
2022-12-20T13:27:33.671Z,3.25
2022-12-20T13:31:35.651Z,2.97
2022-12-20T13:35:55.427Z,2.65
2022-12-20T13:39:59.520Z,2.80
2022-12-20T13:44:27.274Z,3.17
2022-12-20T13:48:35.932Z,3.12
2022-12-20T13:52:44.713Z,3.50
2022-12-20T13:56:47.818Z,3.30
2022-12-20T14:00:50.638Z,3.15
2022-12-20T14:05:02.804Z,3.35
2022-12-20T14:09:05.706Z,3.37
2022-12-20T14:13:26.433Z,3.72
2022-12-20T14:17:33.104Z,3.70
2022-12-20T14:21:37.939Z,4.07
2022-12-20T14:26:00.447Z,4.28
2022-12-20T14:30:02.862Z,4.03
2022-12-20T14:34:10.918Z,3.90
2022-12-20T14:38:24.709Z,4.55
2022-12-20T14:42:32.645Z,3.50
2022-12-20T14:46:35.830Z,3.58
2022-12-20T14:50:40.673Z,3.70
2022-12-20T14:55:10.042Z,3.58
2022-12-20T14:59:17.976Z,3.80
2022-12-20T15:03:20.956Z,4.05
2022-12-20T15:07:31.996Z,3.83
2022-12-20T15:11:35.293Z,3.90
2022-12-20T15:15:37.183Z,3.35
2022-12-20T15:19:42.538Z,3.78
2022-12-20T15:23:48.762Z,4.05
2022-12-20T15:27:50.459Z,3.67
2022-12-20T15:32:17.411Z,4.60
2022-12-20T15:36:26.312Z,4.70
2022-12-20T15:40:27.951Z,4.55
2022-12-20T15:44:31.456Z,3.85
2022-12-20T15:48:33.157Z,3.80
2022-12-20T15:52:34.843Z,4.47
2022-12-20T15:56:36.456Z,4.18
2022-12-20T16:00:42.832Z,3.47
2022-12-20T16:04:44.589Z,3.57
2022-12-20T16:08:46.423Z,4.12
2022-12-20T16:12:48.314Z,3.22
2022-12-20T16:16:50.221Z,3.12
2022-12-20T16:20:52.059Z,3.70
2022-12-20T16:24:53.727Z,4.03
2022-12-20T16:28:56.546Z,3.53
2022-12-20T16:32:59.144Z,3.47
2022-12-20T16:37:00.837Z,4.10
2022-12-20T16:41:12.550Z,4.32
2022-12-20T16:45:20.930Z,4.30
2022-12-20T16:49:22.653Z,4.22
2022-12-20T16:53:24.260Z,4.50
2022-12-20T16:57:25.911Z,3.87
2022-12-20T17:01:35.929Z,3.67
2022-12-20T17:05:39.663Z,3.85
2022-12-20T17:14:00.849Z,3.80
2022-12-20T17:18:02.476Z,4.32
2022-12-20T17:26:28.228Z,4.53
2022-12-20T17:30:29.887Z,4.83
2022-12-20T17:34:31.553Z,4.95
2022-12-20T17:38:33.218Z,4.97
2022-12-20T17:42:34.842Z,5.05
2022-12-20T17:46:36.584Z,5.07
2022-12-20T17:50:39.396Z,4.45
2022-12-20T17:54:41.103Z,4.53
2022-12-20T17:58:43.827Z,3.60
2022-12-20T18:02:45.880Z,4.03
2022-12-20T18:06:48.241Z,4.80
2022-12-20T18:10:49.892Z,4.60
2022-12-20T18:14:51.543Z,5.30
2022-12-20T18:18:53.604Z,4.90
2022-12-20T18:22:55.284Z,5.90
2022-12-20T18:26:56.944Z,5.50
2022-12-20T18:31:01.430Z,6.00
2022-12-20T18:35:03.443Z,5.70
2022-12-20T18:39:07.320Z,5.85
2022-12-20T18:43:08.943Z,6.62
2022-12-20T18:47:10.642Z,6.87
2022-12-20T18:51:15.646Z,6.12
2022-12-20T18:55:17.262Z,5.78
2022-12-20T18:59:19.507Z,5.95
2022-12-20T19:03:21.215Z,6.10
2022-12-20T19:07:23.013Z,5.53
2022-12-20T19:11:24.800Z,6.28
2022-12-20T19:15:26.490Z,6.15
2022-12-20T19:19:28.181Z,6.30
2022-12-20T19:23:29.874Z,6.57
2022-12-20T19:27:31.578Z,6.20
2022-12-20T19:31:36.307Z,6.62
2022-12-20T19:35:55.835Z,6.37
2022-12-20T19:39:58.075Z,6.45
2022-12-20T19:44:00.109Z,7.03
2022-12-20T19:48:01.706Z,6.50
2022-12-20T19:52:03.969Z,7.03
2022-12-20T19:56:06.039Z,7.87
2022-12-20T20:00:08.683Z,7.45
2022-12-20T20:04:10.500Z,7.20
2022-12-20T20:08:12.323Z,6.68
2022-12-20T20:12:14.006Z,7.00
2022-12-20T20:16:21.751Z,7.25
2022-12-20T20:20:24.102Z,7.90
2022-12-20T20:24:25.803Z,7.47
2022-12-20T20:28:33.956Z,8.02
2022-12-20T20:36:39.271Z,7.75
2022-12-20T20:40:40.995Z,6.82
2022-12-20T20:44:42.720Z,6.87
2022-12-20T20:48:44.772Z,7.62
2022-12-20T20:52:46.585Z,6.85
2022-12-20T20:56:48.278Z,6.93
2022-12-20T21:00:57.181Z,7.97
2022-12-20T21:05:52.015Z,7.90
2022-12-20T21:09:20.487Z,8.38
2022-12-20T21:13:22.270Z,8.52
2022-12-20T21:17:23.937Z,6.12
2022-12-20T21:21:26.745Z,6.82
2022-12-20T21:25:28.639Z,5.75
2022-12-20T21:29:30.259Z,5.60
2022-12-20T21:33:32.415Z,5.32
2022-12-20T21:37:34.078Z,5.70
2022-12-20T21:41:35.887Z,5.53
2022-12-20T21:45:37.550Z,5.25
2022-12-20T21:49:39.220Z,5.28
2022-12-20T21:53:43.354Z,4.70
2022-12-20T21:57:47.957Z,5.00
2022-12-20T22:01:49.887Z,5.18
2022-12-20T22:05:54.137Z,5.53
2022-12-20T22:09:55.769Z,5.30
2022-12-20T22:13:57.457Z,4.78
2022-12-20T22:17:59.204Z,5.47
2022-12-20T22:22:01.198Z,5.50
2022-12-20T22:26:13.889Z,5.62
2022-12-20T22:30:15.773Z,5.15
2022-12-20T22:34:17.409Z,4.97
2022-12-20T22:38:19.114Z,5.37
2022-12-20T22:42:20.951Z,5.12
2022-12-20T22:46:22.636Z,5.87
2022-12-20T22:50:24.366Z,5.82
2022-12-20T22:54:26.145Z,6.18
2022-12-20T22:58:28.691Z,6.53
2022-12-20T23:02:30.595Z,6.40
2022-12-20T23:06:32.406Z,6.70
2022-12-20T23:10:52.641Z,6.10
2022-12-20T23:15:26.333Z,6.72
2022-12-20T23:19:28.689Z,6.87
2022-12-20T23:23:30.451Z,6.90
2022-12-20T23:27:32.658Z,7.32
2022-12-20T23:31:34.606Z,7.07
2022-12-20T23:35:36.276Z,7.72
2022-12-20T23:39:38.091Z,8.00
2022-12-20T23:43:39.727Z,9.00
2022-12-20T23:47:41.502Z,9.55
2022-12-20T23:51:43.142Z,9.30
2022-12-20T23:55:55.287Z,9.50
2022-12-20T23:59:57.311Z,8.73
